Time;durP1;ratioP1;P1;durP2;ratioP2;P2;SDS_P1;SDS_P2;PMS_P1;PMS_P2;Temp;Humidity;BMP_temperature;BMP_pressure;BME280_temperature;BME280_humidity;BME280_pressure;Samples;Min_cycle;Max_cycle;Signal;HPM_P1;HPM_P2
2022/01/17 00:01:24;;;;;;;;;31.00;30.00;;;;;;;;5120031;28;13222;-77
2022/01/17 00:03:49;;;;;;;;;34.00;34.00;;;;;;;;5120596;27;12192;-78
2022/01/17 00:06:15;;;;;;;;;43.00;37.00;;;;;;;;5120865;27;8795;-77
2022/01/17 00:08:42;;;;;;;;;36.33;32.33;;;;;;;;5119629;28;12712;-77
2022/01/17 00:11:08;;;;;;;;;40.00;34.33;;;;;;;;5120144;27;13835;-77
2022/01/17 00:13:34;;;;;;;;;34.33;33.00;;;;;;;;5120756;27;12973;-77
2022/01/17 00:16:12;;;;;;;;;33.00;29.00;;;;;;;;5119770;27;13231;-76
2022/01/17 00:21:03;;;;;;;;;34.33;31.33;;;;;;;;5120189;28;13427;-77
2022/01/17 00:23:29;;;;;;;;;34.67;34.00;;;;;;;;5120115;27;13325;-76
2022/01/17 00:25:54;;;;;;;;;38.33;37.00;;;;;;;;5120953;27;10374;-77
2022/01/17 00:28:20;;;;;;;;;35.33;35.00;;;;;;;;5120868;28;10368;-76
2022/01/17 00:30:45;;;;;;;;;36.33;34.00;;;;;;;;5120673;27;8797;-76
2022/01/17 00:33:11;;;;;;;;;39.33;36.33;;;;;;;;5121262;28;9040;-76
2022/01/17 00:35:36;;;;;;;;;34.00;30.67;;;;;;;;5120520;27;11634;-77
2022/01/17 00:38:02;;;;;;;;;44.00;37.33;;;;;;;;5120438;27;11377;-77
2022/01/17 00:40:27;;;;;;;;;33.67;29.67;;;;;;;;5120132;27;13280;-77
2022/01/17 00:42:52;;;;;;;;;34.33;31.00;;;;;;;;5120442;28;14457;-79
2022/01/17 00:45:24;;;;;;;;;35.33;31.33;;;;;;;;5119469;28;12866;-80
2022/01/17 00:47:50;;;;;;;;;38.00;34.00;;;;;;;;5121890;27;12574;-79
2022/01/17 00:50:16;;;;;;;;;34.67;32.33;;;;;;;;5121279;28;14516;-80
2022/01/17 00:52:41;;;;;;;;;31.67;30.00;;;;;;;;5122635;27;11366;-80
2022/01/17 00:55:07;;;;;;;;;36.00;33.67;;;;;;;;5122548;28;12720;-80
2022/01/17 00:57:32;;;;;;;;;39.00;34.33;;;;;;;;5121435;27;11605;-80
2022/01/17 00:59:57;;;;;;;;;35.67;30.00;;;;;;;;5121453;28;11614;-80
2022/01/17 01:02:22;;;;;;;;;34.00;32.33;;;;;;;;5120953;27;11381;-80
2022/01/17 01:04:48;;;;;;;;;36.33;32.33;;;;;;;;5119836;28;11443;-80
2022/01/17 01:07:13;;;;;;;;;39.33;35.67;;;;;;;;5120651;27;8925;-81
2022/01/17 01:09:50;;;;;;;;;35.67;34.00;;;;;;;;5121666;28;11395;-80
2022/01/17 01:12:15;;;;;;;;;37.00;35.00;;;;;;;;5120473;27;11672;-80
2022/01/17 01:14:42;;;;;;;;;37.67;34.33;;;;;;;;5120563;28;10606;-80
2022/01/17 01:17:18;;;;;;;;;33.33;32.00;;;;;;;;5120724;27;10430;-79
2022/01/17 01:19:44;;;;;;;;;37.00;36.00;;;;;;;;5124533;27;11502;-80
2022/01/17 01:27:55;;;;;;;;;40.67;35.67;;;;;;;;5124204;28;13380;-80
2022/01/17 01:30:22;;;;;;;;;33.67;32.00;;;;;;;;5123843;27;14586;-80
2022/01/17 01:32:52;;;;;;;;;43.33;37.00;;;;;;;;5122680;27;13482;-81
2022/01/17 01:35:20;;;;;;;;;30.00;28.67;;;;;;;;5123307;27;13621;-81
2022/01/17 01:37:47;;;;;;;;;35.00;31.00;;;;;;;;5123949;27;13266;-81
2022/01/17 01:40:13;;;;;;;;;33.67;32.00;;;;;;;;5123685;27;12253;-81
2022/01/17 01:42:38;;;;;;;;;41.67;36.00;;;;;;;;5124836;27;10409;-80
2022/01/17 01:45:07;;;;;;;;;50.33;39.00;;;;;;;;5124213;27;10337;-80
2022/01/17 01:47:32;;;;;;;;;43.67;40.33;;;;;;;;5124662;27;12278;-79
2022/01/17 01:49:58;;;;;;;;;40.67;35.00;;;;;;;;5123254;28;16570;-79
2022/01/17 01:52:24;;;;;;;;;38.67;33.33;;;;;;;;5124274;27;13266;-79
2022/01/17 01:54:49;;;;;;;;;52.33;40.33;;;;;;;;5122724;28;13583;-80
2022/01/17 01:57:14;;;;;;;;;33.33;32.33;;;;;;;;5123467;27;12266;-80
2022/01/17 01:59:40;;;;;;;;;44.33;39.67;;;;;;;;5123700;27;10957;-80
2022/01/17 02:02:06;;;;;;;;;52.75;46.75;;;;;;;;5123211;28;14463;-81
2022/01/17 02:04:31;;;;;;;;;33.67;31.00;;;;;;;;5123247;27;13773;-79
2022/01/17 02:06:57;;;;;;;;;43.25;38.75;;;;;;;;5123139;27;13292;-80
2022/01/17 02:09:23;;;;;;;;;51.50;43.50;;;;;;;;5123942;27;13309;-80
2022/01/17 02:11:49;;;;;;;;;68.75;53.50;;;;;;;;5123667;27;13475;-80
2022/01/17 02:14:14;;;;;;;;;66.50;53.25;;;;;;;;5123796;27;12215;-79
2022/01/17 02:16:41;;;;;;;;;73.50;57.00;;;;;;;;5122144;28;13988;-81
2022/01/17 02:19:07;;;;;;;;;71.75;57.00;;;;;;;;5123512;27;13292;-80
2022/01/17 02:21:50;;;;;;;;;77.00;63.00;;;;;;;;5123729;27;9073;-80
2022/01/17 02:24:18;;;;;;;;;81.25;66.00;;;;;;;;5122889;27;11652;-79
2022/01/17 02:26:44;;;;;;;;;77.50;62.00;;;;;;;;5123716;27;13545;-80
2022/01/17 02:29:09;;;;;;;;;73.50;58.00;;;;;;;;5123482;27;12854;-80
2022/01/17 02:31:35;;;;;;;;;73.00;56.75;;;;;;;;5123659;27;9521;-80
2022/01/17 02:34:01;;;;;;;;;68.25;54.00;;;;;;;;5123193;27;10345;-80
2022/01/17 02:36:27;;;;;;;;;67.25;54.50;;;;;;;;5122391;27;13787;-81
2022/01/17 02:38:52;;;;;;;;;65.75;53.00;;;;;;;;5122907;27;11424;-80
2022/01/17 02:41:18;;;;;;;;;57.50;49.25;;;;;;;;5123326;28;11384;-80
2022/01/17 02:43:46;;;;;;;;;60.25;48.75;;;;;;;;5120934;28;13833;-81
2022/01/17 02:48:39;;;;;;;;;66.00;54.75;;;;;;;;5122261;28;12268;-79
2022/01/17 02:51:05;;;;;;;;;67.75;54.75;;;;;;;;5120774;28;13622;-79
2022/01/17 02:53:30;;;;;;;;;64.00;52.50;;;;;;;;5122160;27;8893;-81
2022/01/17 02:55:57;;;;;;;;;63.00;52.50;;;;;;;;5122413;27;11375;-79
2022/01/17 02:58:24;;;;;;;;;66.75;51.25;;;;;;;;5123151;27;9566;-79
2022/01/17 03:00:50;;;;;;;;;63.00;50.75;;;;;;;;5122784;27;11694;-79
2022/01/17 03:03:17;;;;;;;;;61.25;50.25;;;;;;;;5122590;27;11739;-80
2022/01/17 03:05:42;;;;;;;;;61.50;48.50;;;;;;;;5123407;27;10432;-79
2022/01/17 03:08:07;;;;;;;;;61.25;51.00;;;;;;;;5123114;28;12412;-79
2022/01/17 03:10:39;;;;;;;;;61.25;49.00;;;;;;;;5122096;27;13653;-79
2022/01/17 03:13:30;;;;;;;;;65.75;50.50;;;;;;;;5121433;27;8759;-80
2022/01/17 03:15:58;;;;;;;;;63.00;47.75;;;;;;;;5122262;27;12697;-79
2022/01/17 03:18:28;;;;;;;;;60.25;50.25;;;;;;;;5122287;27;12299;-80
2022/01/17 03:20:53;;;;;;;;;54.25;45.75;;;;;;;;5122642;27;11650;-80
2022/01/17 03:23:19;;;;;;;;;59.50;47.25;;;;;;;;5122742;27;12362;-79
2022/01/17 11:13:50;;;;;;;;;56.50;47.00;;;;;;;;5207522;27;78694;-69
2022/01/17 13:39:39;;;;;;;;;58.00;43.67;;;;;;;;5079016;27;1466319;-92
2022/01/17 13:42:09;;;;;;;;;60.67;45.67;;;;;;;;5118200;28;23022;-91
2022/01/17 13:44:36;;;;;;;;;65.00;51.00;;;;;;;;5119154;27;12385;-93
2022/01/17 13:47:06;;;;;;;;;63.33;51.33;;;;;;;;5116085;28;14781;-83
2022/01/17 13:49:38;;;;;;;;;58.00;46.00;;;;;;;;5115014;28;13638;-72
2022/01/17 13:52:04;;;;;;;;;57.33;44.00;;;;;;;;5116157;28;13426;-72
2022/01/17 13:54:30;;;;;;;;;57.00;44.67;;;;;;;;5117105;28;10507;-73
2022/01/17 13:56:56;;;;;;;;;58.67;48.00;;;;;;;;5116410;28;9545;-75
2022/01/17 13:59:25;;;;;;;;;57.00;48.00;;;;;;;;5116432;28;11619;-75
2022/01/17 14:01:51;;;;;;;;;62.33;47.33;;;;;;;;5116472;28;9104;-74
2022/01/17 14:04:20;;;;;;;;;57.67;47.00;;;;;;;;5115993;28;13571;-74
2022/01/17 14:06:46;;;;;;;;;59.00;48.00;;;;;;;;5115688;28;13937;-74
2022/01/17 14:09:11;;;;;;;;;63.00;49.67;;;;;;;;5093226;28;10982;-74
2022/01/17 14:11:40;;;;;;;;;63.00;48.00;;;;;;;;5095699;28;13405;-74
2022/01/17 14:14:14;;;;;;;;;61.33;47.00;;;;;;;;5105377;27;9104;-74
2022/01/17 14:16:40;;;;;;;;;58.67;46.33;;;;;;;;5108092;28;10545;-73
2022/01/17 14:19:07;;;;;;;;;56.33;42.00;;;;;;;;5096109;28;15552;-75
2022/01/17 14:21:35;;;;;;;;;61.00;48.00;;;;;;;;5095358;28;11516;-76
2022/01/17 14:24:05;;;;;;;;;58.00;47.67;;;;;;;;5094050;28;14707;-73
2022/01/17 14:26:31;;;;;;;;;61.00;51.00;;;;;;;;5095151;28;13565;-73
2022/01/17 14:28:56;;;;;;;;;63.00;50.00;;;;;;;;5095593;28;13537;-74
2022/01/17 14:31:21;;;;;;;;;67.33;52.00;;;;;;;;5095338;28;8814;-75
2022/01/17 14:33:51;;;;;;;;;68.67;54.00;;;;;;;;5095136;28;10410;-72
2022/01/17 14:36:17;;;;;;;;;68.33;55.33;;;;;;;;5095164;28;10428;-72
2022/01/17 14:38:53;;;;;;;;;64.00;51.33;;;;;;;;5093631;28;10704;-73
2022/01/17 14:41:22;;;;;;;;;66.33;55.00;;;;;;;;5094381;28;10411;-73
2022/01/17 14:43:51;;;;;;;;;60.00;50.33;;;;;;;;5094872;28;11635;-73
2022/01/17 14:46:16;;;;;;;;;69.67;55.00;;;;;;;;5094560;28;11342;-73
2022/01/17 14:48:42;;;;;;;;;64.67;50.00;;;;;;;;5094730;28;11378;-73
2022/01/17 14:51:11;;;;;;;;;67.33;52.33;;;;;;;;5080505;28;8772;-72
2022/01/17 14:53:36;;;;;;;;;74.33;58.00;;;;;;;;5081024;28;11656;-72
2022/01/17 15:01:38;;;;;;;;;67.00;55.00;;;;;;;;5101532;28;13261;-70
2022/01/17 15:04:04;;;;;;;;;64.67;52.67;;;;;;;;5101201;28;13373;-70
2022/01/17 15:06:29;;;;;;;;;75.50;58.50;;;;;;;;5100994;28;11511;-69
2022/01/17 15:08:56;;;;;;;;;77.67;60.33;;;;;;;;5100277;28;13271;-67
2022/01/17 15:11:21;;;;;;;;;77.00;58.33;;;;;;;;5101739;28;12658;-68
2022/01/17 15:13:47;;;;;;;;;76.50;60.00;;;;;;;;5102477;28;11897;-70
2022/01/17 15:16:12;;;;;;;;;75.00;59.33;;;;;;;;5101441;28;12537;-70
2022/01/17 15:18:37;;;;;;;;;72.33;58.33;;;;;;;;5101001;28;12347;-69
2022/01/17 15:21:03;;;;;;;;;74.00;58.00;;;;;;;;5101171;28;10478;-71
2022/01/17 15:23:28;;;;;;;;;74.00;59.50;;;;;;;;5101570;28;11828;-73
2022/01/17 15:25:53;;;;;;;;;78.50;63.50;;;;;;;;5099677;28;8802;-72
2022/01/17 15:28:19;;;;;;;;;81.25;65.00;;;;;;;;5099093;28;12642;-73
2022/01/17 15:30:44;;;;;;;;;80.75;62.75;;;;;;;;5098448;28;15382;-73
2022/01/17 15:33:10;;;;;;;;;76.00;61.25;;;;;;;;5100775;28;11605;-72
2022/01/17 15:35:35;;;;;;;;;78.00;61.00;;;;;;;;5100764;28;12253;-73
2022/01/17 15:38:01;;;;;;;;;79.25;61.75;;;;;;;;5099539;28;11404;-73
2022/01/17 15:40:26;;;;;;;;;80.50;60.50;;;;;;;;5097041;28;13408;-72
2022/01/17 15:42:52;;;;;;;;;77.00;60.50;;;;;;;;5099664;28;13214;-71
2022/01/17 15:45:17;;;;;;;;;84.25;66.00;;;;;;;;5099033;28;10307;-72
2022/01/17 15:47:43;;;;;;;;;84.50;64.50;;;;;;;;5090835;28;14699;-72
2022/01/17 15:50:09;;;;;;;;;83.50;66.00;;;;;;;;5080692;28;10540;-71
2022/01/17 15:52:34;;;;;;;;;83.75;63.75;;;;;;;;5078735;28;11415;-71
2022/01/17 15:54:59;;;;;;;;;81.50;64.00;;;;;;;;5079020;28;10554;-72
2022/01/17 15:57:25;;;;;;;;;81.50;63.25;;;;;;;;5080193;28;11359;-72
2022/01/17 15:59:50;;;;;;;;;84.25;65.75;;;;;;;;5080271;28;8936;-70
2022/01/17 16:02:16;;;;;;;;;87.75;67.00;;;;;;;;5079473;28;10387;-72
2022/01/17 16:04:42;;;;;;;;;83.25;63.25;;;;;;;;5080138;28;11827;-72
2022/01/17 16:07:07;;;;;;;;;83.25;64.50;;;;;;;;5077991;28;12033;-73
2022/01/17 16:09:33;;;;;;;;;80.25;63.50;;;;;;;;5086008;28;9584;-74
2022/01/17 16:11:58;;;;;;;;;84.00;64.25;;;;;;;;5099184;28;8982;-74
2022/01/17 16:14:24;;;;;;;;;83.75;61.50;;;;;;;;5100014;28;11893;-76
2022/01/17 16:16:49;;;;;;;;;79.00;61.25;;;;;;;;5099722;28;11647;-79
2022/01/17 16:19:15;;;;;;;;;84.50;65.25;;;;;;;;5100484;28;13259;-77
2022/01/17 16:21:40;;;;;;;;;86.50;68.00;;;;;;;;5099072;28;14345;-78
2022/01/17 16:24:08;;;;;;;;;81.75;63.75;;;;;;;;5097320;28;11354;-73
2022/01/17 16:26:34;;;;;;;;;84.50;63.25;;;;;;;;5097514;28;11551;-77
2022/01/17 16:28:59;;;;;;;;;81.75;64.00;;;;;;;;5098571;28;12592;-77
2022/01/17 16:31:25;;;;;;;;;79.25;60.50;;;;;;;;5101522;28;11389;-78
2022/01/17 16:33:50;;;;;;;;;80.00;63.25;;;;;;;;5100273;28;13664;-76
2022/01/17 16:36:16;;;;;;;;;81.00;62.25;;;;;;;;5100002;28;13382;-76
2022/01/17 16:38:42;;;;;;;;;83.75;63.00;;;;;;;;5096981;28;9086;-76
2022/01/17 16:41:09;;;;;;;;;80.75;63.50;;;;;;;;5098093;28;11462;-76
2022/01/17 16:43:35;;;;;;;;;72.33;55.00;;;;;;;;5098607;28;14150;-75
2022/01/17 16:46:00;;;;;;;;;75.00;56.00;;;;;;;;5099934;28;13558;-73
2022/01/17 16:48:25;;;;;;;;;67.25;55.50;;;;;;;;5096310;28;10425;-74
2022/01/17 16:50:51;;;;;;;;;78.25;61.00;;;;;;;;5099208;28;14418;-73
2022/01/17 16:53:16;;;;;;;;;80.75;61.00;;;;;;;;5098556;28;13256;-76
2022/01/17 16:55:42;;;;;;;;;76.25;60.75;;;;;;;;5096686;28;12049;-75
2022/01/17 16:58:07;;;;;;;;;77.25;60.00;;;;;;;;5098224;28;14533;-81
2022/01/17 17:00:33;;;;;;;;;75.00;59.00;;;;;;;;5098284;28;11476;-77
2022/01/17 17:02:59;;;;;;;;;78.50;61.00;;;;;;;;5097866;28;11513;-77
2022/01/17 17:05:25;;;;;;;;;74.00;57.67;;;;;;;;5098105;28;11481;-78
2022/01/17 17:07:51;;;;;;;;;71.33;57.00;;;;;;;;5097714;28;12654;-76
2022/01/17 17:10:17;;;;;;;;;70.33;55.00;;;;;;;;5097539;28;11625;-85
2022/01/17 17:12:44;;;;;;;;;69.00;54.33;;;;;;;;5099150;28;8793;-83
2022/01/17 17:15:10;;;;;;;;;68.00;54.00;;;;;;;;5097337;28;13342;-77
2022/01/17 17:17:35;;;;;;;;;70.50;56.50;;;;;;;;5088360;28;11501;-85
2022/01/17 17:20:01;;;;;;;;;75.00;57.67;;;;;;;;5088380;28;13570;-87
2022/01/17 17:22:30;;;;;;;;;73.33;57.00;;;;;;;;5093875;28;11656;-80
2022/01/17 17:24:56;;;;;;;;;76.25;60.00;;;;;;;;5090792;28;11462;-82
2022/01/17 17:27:21;;;;;;;;;75.50;58.75;;;;;;;;5090857;28;10339;-79
2022/01/17 17:29:46;;;;;;;;;81.00;62.00;;;;;;;;5090963;28;12196;-86
2022/01/17 17:32:12;;;;;;;;;78.25;60.00;;;;;;;;5091967;28;16627;-84
2022/01/17 17:34:37;;;;;;;;;74.50;57.50;;;;;;;;5094685;28;12260;-82
2022/01/17 18:11:24;;;;;;;;;75.25;60.00;;;;;;;;5216720;27;76905;-78
2022/01/17 18:13:49;;;;;;;;;75.25;54.25;;;;;;;;5197352;27;23091;-79
2022/01/17 18:16:14;;;;;;;;;76.00;60.50;;;;;;;;5200132;27;10331;-79
2022/01/17 18:18:40;;;;;;;;;76.25;56.50;;;;;;;;5198981;27;12218;-77
2022/01/17 18:21:07;;;;;;;;;76.50;59.50;;;;;;;;5196019;27;11488;-83
2022/01/17 18:23:33;;;;;;;;;69.75;54.75;;;;;;;;5178809;27;12289;-78
2022/01/17 18:25:58;;;;;;;;;75.00;58.25;;;;;;;;5198345;27;13396;-72
2022/01/17 18:28:24;;;;;;;;;76.25;56.25;;;;;;;;5198356;27;12259;-74
2022/01/17 18:30:49;;;;;;;;;76.25;59.25;;;;;;;;5197758;27;10850;-74
2022/01/17 18:33:18;;;;;;;;;69.33;57.00;;;;;;;;5198131;27;8882;-72
2022/01/17 18:35:44;;;;;;;;;65.00;51.00;;;;;;;;5197356;27;13611;-72
2022/01/17 18:38:09;;;;;;;;;73.67;57.33;;;;;;;;5197765;27;10513;-73
2022/01/17 18:40:35;;;;;;;;;72.33;54.00;;;;;;;;5197201;27;13382;-71
2022/01/17 18:43:00;;;;;;;;;77.67;56.00;;;;;;;;5197752;27;11617;-71
2022/01/17 18:45:25;;;;;;;;;59.00;49.33;;;;;;;;5197741;27;10353;-71
2022/01/17 18:47:51;;;;;;;;;74.00;57.33;;;;;;;;5196922;27;13485;-71
2022/01/17 18:50:16;;;;;;;;;70.67;56.33;;;;;;;;5178347;27;13457;-70
2022/01/17 18:52:42;;;;;;;;;70.00;57.00;;;;;;;;5197927;27;11596;-72
2022/01/17 18:55:09;;;;;;;;;70.67;55.33;;;;;;;;5192919;27;10628;-71
2022/01/17 18:57:34;;;;;;;;;72.67;55.33;;;;;;;;5197517;27;10423;-72
2022/01/17 19:00:01;;;;;;;;;75.33;57.00;;;;;;;;5194985;27;8795;-74
2022/01/17 19:02:27;;;;;;;;;64.33;53.00;;;;;;;;5196959;27;11724;-79
2022/01/17 19:04:52;;;;;;;;;68.00;54.67;;;;;;;;5197950;27;10397;-73
2022/01/17 19:07:18;;;;;;;;;65.33;52.67;;;;;;;;5197006;27;12831;-77
2022/01/17 19:09:44;;;;;;;;;76.50;62.75;;;;;;;;5177499;27;10831;-76
2022/01/17 19:12:11;;;;;;;;;74.00;56.25;;;;;;;;5196717;27;13504;-77
2022/01/17 19:14:38;;;;;;;;;64.33;54.33;;;;;;;;5195009;27;12047;-76
2022/01/17 19:17:09;;;;;;;;;65.67;54.00;;;;;;;;5198062;27;12959;-76
2022/01/17 19:19:54;;;;;;;;;79.75;63.00;;;;;;;;5196750;27;11728;-76
2022/01/17 19:22:19;;;;;;;;;77.25;62.00;;;;;;;;5182343;27;12500;-75
2022/01/17 19:24:45;;;;;;;;;80.25;62.25;;;;;;;;5183034;27;9525;-76
2022/01/17 19:27:10;;;;;;;;;79.75;63.00;;;;;;;;5183892;27;14278;-76
2022/01/17 19:29:35;;;;;;;;;77.25;61.25;;;;;;;;5183523;27;13371;-75
2022/01/17 19:32:01;;;;;;;;;75.25;60.75;;;;;;;;5184214;27;11737;-78
2022/01/17 19:34:26;;;;;;;;;83.25;63.50;;;;;;;;5184116;27;11506;-76
2022/01/17 19:36:51;;;;;;;;;77.00;61.25;;;;;;;;5183957;27;13281;-75
2022/01/17 19:39:17;;;;;;;;;80.00;62.50;;;;;;;;5183504;27;13256;-75
2022/01/17 19:41:42;;;;;;;;;77.50;62.25;;;;;;;;5163964;27;13529;-77
2022/01/17 19:44:08;;;;;;;;;80.00;63.50;;;;;;;;5166006;27;13465;-76
2022/01/17 19:46:33;;;;;;;;;83.00;62.75;;;;;;;;5183160;27;13309;-76
2022/01/17 19:49:01;;;;;;;;;79.00;63.50;;;;;;;;5181775;27;11397;-70
2022/01/17 19:51:28;;;;;;;;;74.00;58.25;;;;;;;;5175304;27;13753;-70
2022/01/17 19:53:54;;;;;;;;;70.33;56.33;;;;;;;;5162993;27;12873;-71
2022/01/17 19:56:19;;;;;;;;;66.25;50.25;;;;;;;;5163675;27;10335;-71
2022/01/17 19:58:45;;;;;;;;;72.75;56.00;;;;;;;;5165454;27;10570;-73
2022/01/17 20:01:10;;;;;;;;;73.00;59.25;;;;;;;;5173466;27;14511;-68
2022/01/17 20:03:35;;;;;;;;;81.75;64.50;;;;;;;;5171942;27;11575;-68
2022/01/17 20:06:04;;;;;;;;;83.50;66.75;;;;;;;;5171845;27;13663;-68
2022/01/17 20:08:29;;;;;;;;;94.00;73.00;;;;;;;;5152651;27;13652;-68
2022/01/17 20:10:55;;;;;;;;;96.25;72.00;;;;;;;;5173153;27;13291;-68
2022/01/17 20:13:21;;;;;;;;;90.25;71.25;;;;;;;;5173885;27;10359;-68
2022/01/17 20:15:47;;;;;;;;;91.50;71.75;;;;;;;;5174277;27;11087;-68
2022/01/17 20:18:12;;;;;;;;;98.50;75.00;;;;;;;;5173663;27;10355;-69
2022/01/17 20:20:39;;;;;;;;;90.50;71.50;;;;;;;;5153362;27;13619;-70
2022/01/17 20:23:04;;;;;;;;;98.25;75.25;;;;;;;;5172103;27;11448;-69
2022/01/17 20:25:29;;;;;;;;;90.50;69.75;;;;;;;;5173792;27;12470;-68
2022/01/17 20:27:55;;;;;;;;;98.75;74.50;;;;;;;;5173696;27;11588;-68
2022/01/17 20:30:21;;;;;;;;;93.00;72.50;;;;;;;;5171941;27;12527;-68
2022/01/17 20:32:46;;;;;;;;;99.25;78.50;;;;;;;;5173092;27;10557;-69
2022/01/17 20:35:12;;;;;;;;;95.50;76.00;;;;;;;;5171228;27;10396;-67
2022/01/17 20:37:38;;;;;;;;;94.50;73.25;;;;;;;;5165423;27;11791;-67
2022/01/17 20:40:04;;;;;;;;;91.50;72.50;;;;;;;;5162299;27;11520;-68
2022/01/17 20:42:30;;;;;;;;;88.25;70.75;;;;;;;;5162864;27;11807;-68
2022/01/17 20:44:55;;;;;;;;;88.75;71.00;;;;;;;;5162804;27;13231;-68
2022/01/17 20:47:20;;;;;;;;;86.50;67.50;;;;;;;;5162570;27;10343;-68
2022/01/17 20:49:46;;;;;;;;;91.75;67.00;;;;;;;;5162737;27;12201;-68
2022/01/17 20:52:11;;;;;;;;;74.75;58.50;;;;;;;;5162272;27;13466;-68
2022/01/17 20:54:37;;;;;;;;;82.50;65.00;;;;;;;;5161904;27;13428;-68
2022/01/17 20:57:04;;;;;;;;;84.25;65.75;;;;;;;;5143726;27;15573;-68
2022/01/17 20:59:29;;;;;;;;;81.25;66.00;;;;;;;;5162776;27;12588;-69
2022/01/17 21:01:57;;;;;;;;;77.25;61.25;;;;;;;;5144233;27;12106;-67
2022/01/17 21:04:22;;;;;;;;;75.25;57.50;;;;;;;;5162098;27;13434;-67
2022/01/17 21:06:48;;;;;;;;;72.75;58.50;;;;;;;;5162483;27;12246;-68
2022/01/17 21:09:13;;;;;;;;;72.25;58.00;;;;;;;;5142569;27;12031;-68
2022/01/17 21:11:38;;;;;;;;;69.33;54.00;;;;;;;;5169823;27;9899;-68
2022/01/17 21:14:04;;;;;;;;;54.67;47.33;;;;;;;;5166108;27;10645;-67
2022/01/17 21:16:29;;;;;;;;;68.75;56.75;;;;;;;;5161816;27;13457;-68
2022/01/17 21:18:55;;;;;;;;;77.50;61.00;;;;;;;;5162843;27;12194;-67
2022/01/17 21:21:21;;;;;;;;;72.50;60.25;;;;;;;;5161868;27;13454;-68
2022/01/17 21:23:46;;;;;;;;;68.33;54.33;;;;;;;;5173934;27;11454;-68
2022/01/17 21:26:12;;;;;;;;;70.00;55.67;;;;;;;;5162452;27;12210;-68
2022/01/17 21:28:38;;;;;;;;;68.50;55.25;;;;;;;;5162361;27;13294;-68
2022/01/17 21:31:03;;;;;;;;;70.50;56.25;;;;;;;;5162263;27;13223;-68
2022/01/17 21:33:28;;;;;;;;;66.67;55.00;;;;;;;;5143151;27;10925;-68
2022/01/17 21:35:54;;;;;;;;;23.67;15.33;;;;;;;;5161669;27;13650;-68
2022/01/17 21:38:19;;;;;;;;;62.75;54.00;;;;;;;;5079747;27;13249;-68
2022/01/17 21:40:44;;;;;;;;;64.00;47.00;;;;;;;;5099472;28;13244;-68
2022/01/17 21:43:10;;;;;;;;;66.33;53.00;;;;;;;;5099735;28;11663;-68
2022/01/17 21:45:35;;;;;;;;;63.00;52.00;;;;;;;;5080898;28;14545;-68
2022/01/17 21:48:00;;;;;;;;;66.75;54.50;;;;;;;;5081458;28;12409;-68
2022/01/17 21:50:26;;;;;;;;;72.00;56.50;;;;;;;;5099424;28;11607;-68
2022/01/17 21:52:51;;;;;;;;;63.50;52.50;;;;;;;;5099475;28;12188;-69
2022/01/17 21:55:16;;;;;;;;;63.33;51.67;;;;;;;;5099083;28;12253;-69
2022/01/17 21:57:42;;;;;;;;;57.33;47.33;;;;;;;;5099009;28;10633;-69
2022/01/17 22:00:09;;;;;;;;;55.67;45.67;;;;;;;;5098756;28;13386;-69
2022/01/17 22:02:34;;;;;;;;;26.67;17.33;;;;;;;;5099150;28;11464;-69
2022/01/17 22:04:59;;;;;;;;;57.67;48.67;;;;;;;;5098124;28;13402;-69
2022/01/17 22:07:25;;;;;;;;;59.33;46.00;;;;;;;;5099841;28;13331;-70
2022/01/17 22:09:50;;;;;;;;;56.00;48.00;;;;;;;;5098989;28;11532;-69
2022/01/17 22:12:15;;;;;;;;;63.00;50.00;;;;;;;;5098627;28;10552;-70
2022/01/17 22:14:41;;;;;;;;;51.33;45.00;;;;;;;;5097449;28;10368;-70
2022/01/17 22:17:07;;;;;;;;;57.00;45.67;;;;;;;;5098184;28;12289;-69
2022/01/17 22:19:32;;;;;;;;;53.00;45.67;;;;;;;;5099595;28;11802;-68
2022/01/17 22:21:58;;;;;;;;;61.33;46.67;;;;;;;;5099401;28;8798;-68
2022/01/17 22:24:23;;;;;;;;;2.00;2.00;;;;;;;;5099924;28;12374;-69
2022/01/17 22:26:49;;;;;;;;;66.00;49.00;;;;;;;;5099285;28;22685;-68
2022/01/17 22:29:14;;;;;;;;;63.00;49.33;;;;;;;;5099098;28;23738;-69
2022/01/17 22:31:39;;;;;;;;;58.33;47.33;;;;;;;;5099270;28;11371;-68
2022/01/17 22:34:05;;;;;;;;;58.67;48.67;;;;;;;;5099828;28;12200;-68
2022/01/17 22:36:30;;;;;;;;;60.67;46.33;;;;;;;;5099000;28;10352;-68
2022/01/17 22:38:55;;;;;;;;;46.67;42.33;;;;;;;;5080346;28;15419;-68
2022/01/17 22:41:20;;;;;;;;;63.00;49.00;;;;;;;;5098928;28;10506;-69
2022/01/17 22:43:46;;;;;;;;;52.67;46.33;;;;;;;;5099096;28;13311;-69
2022/01/17 22:46:12;;;;;;;;;50.00;43.67;;;;;;;;5098850;28;13664;-69
2022/01/17 22:48:37;;;;;;;;;55.00;46.67;;;;;;;;5099080;28;11595;-69
2022/01/17 22:51:02;;;;;;;;;49.67;43.33;;;;;;;;5099556;28;8830;-69
2022/01/17 22:53:28;;;;;;;;;59.33;49.00;;;;;;;;5099332;28;13529;-69
2022/01/17 22:55:53;;;;;;;;;59.00;47.33;;;;;;;;5099138;28;13415;-69
2022/01/17 22:58:18;;;;;;;;;55.33;44.00;;;;;;;;5102908;28;10356;-68
2022/01/17 23:00:44;;;;;;;;;60.67;47.67;;;;;;;;5102983;28;11401;-69
2022/01/17 23:03:10;;;;;;;;;50.67;45.33;;;;;;;;5102427;28;13226;-69
2022/01/17 23:05:35;;;;;;;;;51.33;43.33;;;;;;;;5084036;28;13397;-69
2022/01/17 23:08:01;;;;;;;;;48.33;43.00;;;;;;;;5102339;28;10387;-69
2022/01/17 23:10:27;;;;;;;;;53.33;46.00;;;;;;;;5102103;28;13447;-69
2022/01/17 23:12:53;;;;;;;;;59.33;47.33;;;;;;;;5102404;28;11553;-68
2022/01/17 23:15:25;;;;;;;;;57.33;45.67;;;;;;;;5102052;28;11419;-68
2022/01/17 23:17:51;;;;;;;;;61.67;45.00;;;;;;;;5102447;28;11527;-69
2022/01/17 23:20:18;;;;;;;;;58.00;47.33;;;;;;;;5101792;28;13298;-69
2022/01/17 23:22:44;;;;;;;;;57.00;45.33;;;;;;;;5102724;28;13445;-69
2022/01/17 23:25:09;;;;;;;;;54.33;44.00;;;;;;;;5102581;28;8807;-69
2022/01/17 23:27:34;;;;;;;;;55.00;46.00;;;;;;;;5102690;28;11382;-69
2022/01/17 23:30:04;;;;;;;;;59.33;46.00;;;;;;;;5102436;28;10624;-69
2022/01/17 23:35:13;;;;;;;;;53.67;44.67;;;;;;;;5102410;28;12257;-69
2022/01/17 23:37:39;;;;;;;;;56.33;44.33;;;;;;;;5102441;28;13221;-69
2022/01/17 23:40:05;;;;;;;;;43.67;41.33;;;;;;;;5101995;28;11367;-69
2022/01/17 23:42:30;;;;;;;;;55.67;43.33;;;;;;;;5101900;28;12195;-67
2022/01/17 23:44:55;;;;;;;;;54.33;47.67;;;;;;;;5102034;28;11923;-70
2022/01/17 23:47:21;;;;;;;;;46.67;43.67;;;;;;;;5101986;28;11452;-67
2022/01/17 23:49:46;;;;;;;;;58.00;44.33;;;;;;;;5101584;28;12936;-67
2022/01/17 23:52:11;;;;;;;;;58.00;46.33;;;;;;;;5101918;28;13230;-67
2022/01/17 23:54:37;;;;;;;;;52.67;42.00;;;;;;;;5101625;28;9658;-67
2022/01/17 23:57:02;;;;;;;;;54.67;46.00;;;;;;;;5101228;28;11598;-68
2022/01/17 23:59:35;;;;;;;;;60.00;49.00;;;;;;;;5102363;28;9551;-68
